sensor_id;sensor_type;location;lat;lon;timestamp;P1;durP1;ratioP1;P2;durP2;ratioP2
13032;SDS011;6583;42.632;23.298;2023-08-21T00:00:54;6.40;;;5.80;;
13032;SDS011;6583;42.632;23.298;2023-08-21T00:03:20;6.45;;;5.68;;
13032;SDS011;6583;42.632;23.298;2023-08-21T00:05:47;6.28;;;5.25;;
13032;SDS011;6583;42.632;23.298;2023-08-21T00:08:14;6.57;;;5.97;;
13032;SDS011;6583;42.632;23.298;2023-08-21T00:10:42;6.32;;;5.40;;
13032;SDS011;6583;42.632;23.298;2023-08-21T00:13:09;6.25;;;5.50;;
13032;SDS011;6583;42.632;23.298;2023-08-21T00:18:03;6.53;;;5.30;;
13032;SDS011;6583;42.632;23.298;2023-08-21T00:20:30;6.53;;;5.93;;
13032;SDS011;6583;42.632;23.298;2023-08-21T00:22:57;7.43;;;5.93;;
13032;SDS011;6583;42.632;23.298;2023-08-21T00:25:24;7.50;;;5.40;;
13032;SDS011;6583;42.632;23.298;2023-08-21T00:27:52;6.43;;;5.80;;
13032;SDS011;6583;42.632;23.298;2023-08-21T00:30:19;6.43;;;5.93;;
13032;SDS011;6583;42.632;23.298;2023-08-21T00:32:45;6.65;;;6.07;;
13032;SDS011;6583;42.632;23.298;2023-08-21T00:35:12;6.50;;;5.90;;
13032;SDS011;6583;42.632;23.298;2023-08-21T00:37:39;6.35;;;5.75;;
13032;SDS011;6583;42.632;23.298;2023-08-21T00:40:06;6.28;;;5.68;;
13032;SDS011;6583;42.632;23.298;2023-08-21T00:42:33;8.07;;;5.60;;
13032;SDS011;6583;42.632;23.298;2023-08-21T00:45:01;6.10;;;5.50;;
13032;SDS011;6583;42.632;23.298;2023-08-21T00:47:30;6.10;;;5.60;;
13032;SDS011;6583;42.632;23.298;2023-08-21T00:49:57;5.97;;;5.47;;
13032;SDS011;6583;42.632;23.298;2023-08-21T00:52:23;8.05;;;5.90;;
13032;SDS011;6583;42.632;23.298;2023-08-21T00:54:50;6.45;;;5.75;;
13032;SDS011;6583;42.632;23.298;2023-08-21T00:57:17;5.80;;;5.32;;
13032;SDS011;6583;42.632;23.298;2023-08-21T00:59:46;6.25;;;5.65;;
13032;SDS011;6583;42.632;23.298;2023-08-21T01:02:15;5.93;;;5.30;;
13032;SDS011;6583;42.632;23.298;2023-08-21T01:04:43;5.70;;;5.20;;
13032;SDS011;6583;42.632;23.298;2023-08-21T01:07:09;5.53;;;5.03;;
13032;SDS011;6583;42.632;23.298;2023-08-21T01:09:36;6.03;;;5.40;;
13032;SDS011;6583;42.632;23.298;2023-08-21T01:12:09;7.03;;;5.70;;
13032;SDS011;6583;42.632;23.298;2023-08-21T01:14:46;6.38;;;5.80;;
13032;SDS011;6583;42.632;23.298;2023-08-21T01:17:18;6.03;;;5.53;;
13032;SDS011;6583;42.632;23.298;2023-08-21T01:19:48;6.00;;;5.50;;
13032;SDS011;6583;42.632;23.298;2023-08-21T01:22:16;6.60;;;6.00;;
13032;SDS011;6583;42.632;23.298;2023-08-21T01:24:44;6.25;;;5.65;;
13032;SDS011;6583;42.632;23.298;2023-08-21T01:27:12;6.30;;;5.72;;
13032;SDS011;6583;42.632;23.298;2023-08-21T01:29:40;6.00;;;5.50;;
13032;SDS011;6583;42.632;23.298;2023-08-21T01:32:10;6.28;;;5.68;;
13032;SDS011;6583;42.632;23.298;2023-08-21T01:34:46;6.40;;;5.60;;
13032;SDS011;6583;42.632;23.298;2023-08-21T01:37:13;6.13;;;5.63;;
13032;SDS011;6583;42.632;23.298;2023-08-21T01:39:41;6.80;;;5.70;;
13032;SDS011;6583;42.632;23.298;2023-08-21T01:42:09;7.47;;;5.47;;
13032;SDS011;6583;42.632;23.298;2023-08-21T01:44:36;7.13;;;5.53;;
13032;SDS011;6583;42.632;23.298;2023-08-21T01:47:03;6.43;;;5.82;;
13032;SDS011;6583;42.632;23.298;2023-08-21T01:49:30;6.28;;;5.78;;
13032;SDS011;6583;42.632;23.298;2023-08-21T01:51:57;8.07;;;5.30;;
13032;SDS011;6583;42.632;23.298;2023-08-21T01:54:23;6.50;;;5.63;;
13032;SDS011;6583;42.632;23.298;2023-08-21T01:56:50;5.97;;;5.47;;
13032;SDS011;6583;42.632;23.298;2023-08-21T01:59:19;5.95;;;5.43;;
13032;SDS011;6583;42.632;23.298;2023-08-21T02:01:46;6.22;;;5.65;;
13032;SDS011;6583;42.632;23.298;2023-08-21T02:04:12;6.50;;;5.90;;
13032;SDS011;6583;42.632;23.298;2023-08-21T02:06:39;6.25;;;5.53;;
13032;SDS011;6583;42.632;23.298;2023-08-21T02:09:06;5.50;;;5.10;;
13032;SDS011;6583;42.632;23.298;2023-08-21T02:11:32;6.38;;;5.60;;
13032;SDS011;6583;42.632;23.298;2023-08-21T02:13:59;5.95;;;5.35;;
13032;SDS011;6583;42.632;23.298;2023-08-21T02:16:27;8.63;;;5.47;;
13032;SDS011;6583;42.632;23.298;2023-08-21T02:18:54;6.57;;;5.65;;
13032;SDS011;6583;42.632;23.298;2023-08-21T02:21:21;6.75;;;5.50;;
13032;SDS011;6583;42.632;23.298;2023-08-21T02:23:48;6.50;;;5.90;;
13032;SDS011;6583;42.632;23.298;2023-08-21T02:26:15;5.90;;;5.40;;
13032;SDS011;6583;42.632;23.298;2023-08-21T02:28:41;6.82;;;5.82;;
13032;SDS011;6583;42.632;23.298;2023-08-21T02:31:09;6.35;;;5.63;;
13032;SDS011;6583;42.632;23.298;2023-08-21T02:33:37;6.18;;;5.68;;
13032;SDS011;6583;42.632;23.298;2023-08-21T02:36:03;5.80;;;5.30;;
13032;SDS011;6583;42.632;23.298;2023-08-21T02:38:32;6.45;;;5.78;;
13032;SDS011;6583;42.632;23.298;2023-08-21T02:40:59;6.20;;;5.60;;
13032;SDS011;6583;42.632;23.298;2023-08-21T02:43:25;6.20;;;5.70;;
13032;SDS011;6583;42.632;23.298;2023-08-21T02:45:52;6.95;;;5.47;;
13032;SDS011;6583;42.632;23.298;2023-08-21T02:48:19;5.97;;;5.47;;
13032;SDS011;6583;42.632;23.298;2023-08-21T02:50:47;6.47;;;5.88;;
13032;SDS011;6583;42.632;23.298;2023-08-21T02:53:14;6.10;;;5.57;;
13032;SDS011;6583;42.632;23.298;2023-08-21T02:55:41;6.13;;;5.53;;
13032;SDS011;6583;42.632;23.298;2023-08-21T02:58:08;6.00;;;5.60;;
13032;SDS011;6583;42.632;23.298;2023-08-21T03:00:35;6.38;;;5.30;;
13032;SDS011;6583;42.632;23.298;2023-08-21T03:03:01;6.68;;;6.00;;
13032;SDS011;6583;42.632;23.298;2023-08-21T03:05:31;6.53;;;5.95;;
13032;SDS011;6583;42.632;23.298;2023-08-21T03:07:59;6.97;;;6.38;;
13032;SDS011;6583;42.632;23.298;2023-08-21T03:10:26;6.50;;;6.00;;
13032;SDS011;6583;42.632;23.298;2023-08-21T03:12:54;6.18;;;5.60;;
13032;SDS011;6583;42.632;23.298;2023-08-21T03:15:21;6.80;;;6.10;;
13032;SDS011;6583;42.632;23.298;2023-08-21T03:17:48;6.20;;;5.70;;
13032;SDS011;6583;42.632;23.298;2023-08-21T03:20:14;6.53;;;6.03;;
13032;SDS011;6583;42.632;23.298;2023-08-21T03:22:42;6.50;;;5.22;;
13032;SDS011;6583;42.632;23.298;2023-08-21T03:25:10;6.15;;;5.50;;
13032;SDS011;6583;42.632;23.298;2023-08-21T03:27:37;7.18;;;5.90;;
13032;SDS011;6583;42.632;23.298;2023-08-21T03:30:05;6.65;;;5.70;;
13032;SDS011;6583;42.632;23.298;2023-08-21T03:32:33;6.43;;;5.82;;
13032;SDS011;6583;42.632;23.298;2023-08-21T03:34:59;6.38;;;5.78;;
13032;SDS011;6583;42.632;23.298;2023-08-21T03:37:26;18.48;;;6.65;;
13032;SDS011;6583;42.632;23.298;2023-08-21T03:39:53;6.25;;;5.75;;
13032;SDS011;6583;42.632;23.298;2023-08-21T03:42:21;6.43;;;5.88;;
13032;SDS011;6583;42.632;23.298;2023-08-21T03:44:48;6.57;;;5.93;;
13032;SDS011;6583;42.632;23.298;2023-08-21T03:47:15;6.00;;;5.53;;
13032;SDS011;6583;42.632;23.298;2023-08-21T03:49:42;6.30;;;5.80;;
13032;SDS011;6583;42.632;23.298;2023-08-21T03:52:08;6.28;;;5.68;;
13032;SDS011;6583;42.632;23.298;2023-08-21T03:54:35;6.18;;;5.57;;
13032;SDS011;6583;42.632;23.298;2023-08-21T03:57:02;6.35;;;5.75;;
13032;SDS011;6583;42.632;23.298;2023-08-21T03:59:30;7.85;;;5.45;;
13032;SDS011;6583;42.632;23.298;2023-08-21T04:01:57;6.45;;;5.78;;
13032;SDS011;6583;42.632;23.298;2023-08-21T04:04:23;7.85;;;6.45;;
13032;SDS011;6583;42.632;23.298;2023-08-21T04:06:50;6.07;;;5.57;;
13032;SDS011;6583;42.632;23.298;2023-08-21T04:09:17;7.15;;;6.45;;
13032;SDS011;6583;42.632;23.298;2023-08-21T04:11:43;6.55;;;5.95;;
13032;SDS011;6583;42.632;23.298;2023-08-21T04:14:10;6.78;;;5.88;;
13032;SDS011;6583;42.632;23.298;2023-08-21T04:16:38;6.30;;;5.68;;
13032;SDS011;6583;42.632;23.298;2023-08-21T04:19:05;7.55;;;6.10;;
13032;SDS011;6583;42.632;23.298;2023-08-21T04:21:31;6.72;;;6.10;;
13032;SDS011;6583;42.632;23.298;2023-08-21T04:23:58;6.47;;;5.88;;
13032;SDS011;6583;42.632;23.298;2023-08-21T04:26:25;7.22;;;6.30;;
13032;SDS011;6583;42.632;23.298;2023-08-21T04:28:52;6.55;;;5.97;;
13032;SDS011;6583;42.632;23.298;2023-08-21T04:31:19;7.05;;;6.32;;
13032;SDS011;6583;42.632;23.298;2023-08-21T04:33:47;8.63;;;6.55;;
13032;SDS011;6583;42.632;23.298;2023-08-21T04:36:16;7.80;;;7.00;;
13032;SDS011;6583;42.632;23.298;2023-08-21T04:38:43;10.27;;;6.50;;
13032;SDS011;6583;42.632;23.298;2023-08-21T04:41:10;7.05;;;6.35;;
13032;SDS011;6583;42.632;23.298;2023-08-21T04:43:37;7.97;;;6.95;;
13032;SDS011;6583;42.632;23.298;2023-08-21T04:46:03;7.63;;;6.70;;
13032;SDS011;6583;42.632;23.298;2023-08-21T04:48:30;9.60;;;8.70;;
13032;SDS011;6583;42.632;23.298;2023-08-21T04:50:58;9.27;;;8.20;;
13032;SDS011;6583;42.632;23.298;2023-08-21T04:53:25;7.70;;;7.00;;
13032;SDS011;6583;42.632;23.298;2023-08-21T04:55:51;7.18;;;6.43;;
13032;SDS011;6583;42.632;23.298;2023-08-21T04:58:18;10.68;;;7.13;;
13032;SDS011;6583;42.632;23.298;2023-08-21T05:00:45;7.22;;;6.50;;
13032;SDS011;6583;42.632;23.298;2023-08-21T05:03:12;7.50;;;6.90;;
13032;SDS011;6583;42.632;23.298;2023-08-21T05:05:38;7.50;;;6.63;;
13032;SDS011;6583;42.632;23.298;2023-08-21T05:08:06;7.55;;;6.75;;
13032;SDS011;6583;42.632;23.298;2023-08-21T05:10:33;7.25;;;6.55;;
13032;SDS011;6583;42.632;23.298;2023-08-21T05:13:00;7.28;;;6.13;;
13032;SDS011;6583;42.632;23.298;2023-08-21T05:15:27;6.95;;;6.25;;
13032;SDS011;6583;42.632;23.298;2023-08-21T05:17:53;6.97;;;6.35;;
13032;SDS011;6583;42.632;23.298;2023-08-21T05:20:20;7.05;;;6.45;;
13032;SDS011;6583;42.632;23.298;2023-08-21T05:22:47;8.27;;;6.28;;
13032;SDS011;6583;42.632;23.298;2023-08-21T05:25:15;6.57;;;5.97;;
13032;SDS011;6583;42.632;23.298;2023-08-21T05:27:41;7.07;;;6.53;;
13032;SDS011;6583;42.632;23.298;2023-08-21T05:30:08;6.90;;;6.30;;
13032;SDS011;6583;42.632;23.298;2023-08-21T05:32:37;7.15;;;6.45;;
13032;SDS011;6583;42.632;23.298;2023-08-21T05:35:04;7.38;;;6.65;;
13032;SDS011;6583;42.632;23.298;2023-08-21T05:37:33;10.48;;;7.30;;
13032;SDS011;6583;42.632;23.298;2023-08-21T05:40:00;7.93;;;7.07;;
13032;SDS011;6583;42.632;23.298;2023-08-21T05:42:28;8.07;;;7.28;;
13032;SDS011;6583;42.632;23.298;2023-08-21T05:44:55;9.32;;;7.88;;
13032;SDS011;6583;42.632;23.298;2023-08-21T05:47:21;10.52;;;8.38;;
13032;SDS011;6583;42.632;23.298;2023-08-21T05:49:49;11.10;;;7.40;;
13032;SDS011;6583;42.632;23.298;2023-08-21T05:52:17;10.43;;;7.25;;
13032;SDS011;6583;42.632;23.298;2023-08-21T05:54:44;11.55;;;7.75;;
13032;SDS011;6583;42.632;23.298;2023-08-21T05:57:11;9.45;;;6.63;;
13032;SDS011;6583;42.632;23.298;2023-08-21T05:59:43;7.75;;;6.43;;
13032;SDS011;6583;42.632;23.298;2023-08-21T06:02:10;9.82;;;7.00;;
13032;SDS011;6583;42.632;23.298;2023-08-21T06:04:37;9.57;;;7.35;;
13032;SDS011;6583;42.632;23.298;2023-08-21T06:07:05;9.38;;;7.20;;
13032;SDS011;6583;42.632;23.298;2023-08-21T06:09:32;10.38;;;7.57;;
13032;SDS011;6583;42.632;23.298;2023-08-21T06:11:59;8.23;;;7.18;;
13032;SDS011;6583;42.632;23.298;2023-08-21T06:14:27;8.27;;;7.07;;
13032;SDS011;6583;42.632;23.298;2023-08-21T06:16:56;8.52;;;7.68;;
13032;SDS011;6583;42.632;23.298;2023-08-21T06:19:23;8.15;;;7.25;;
13032;SDS011;6583;42.632;23.298;2023-08-21T06:21:49;13.93;;;8.40;;
13032;SDS011;6583;42.632;23.298;2023-08-21T06:24:16;12.48;;;8.05;;
13032;SDS011;6583;42.632;23.298;2023-08-21T06:26:43;10.43;;;7.90;;
13032;SDS011;6583;42.632;23.298;2023-08-21T06:29:09;12.95;;;8.02;;
13032;SDS011;6583;42.632;23.298;2023-08-21T06:31:36;14.35;;;8.20;;
13032;SDS011;6583;42.632;23.298;2023-08-21T06:34:04;9.35;;;8.13;;
13032;SDS011;6583;42.632;23.298;2023-08-21T06:36:31;10.95;;;7.88;;
13032;SDS011;6583;42.632;23.298;2023-08-21T06:38:57;9.05;;;6.72;;
13032;SDS011;6583;42.632;23.298;2023-08-21T06:41:24;14.07;;;8.13;;
13032;SDS011;6583;42.632;23.298;2023-08-21T06:43:51;10.23;;;7.70;;
13032;SDS011;6583;42.632;23.298;2023-08-21T06:46:18;9.10;;;7.53;;
13032;SDS011;6583;42.632;23.298;2023-08-21T06:48:45;13.32;;;8.15;;
13032;SDS011;6583;42.632;23.298;2023-08-21T06:51:13;10.73;;;8.00;;
13032;SDS011;6583;42.632;23.298;2023-08-21T06:53:39;9.75;;;7.55;;
13032;SDS011;6583;42.632;23.298;2023-08-21T06:56:06;9.52;;;7.32;;
13032;SDS011;6583;42.632;23.298;2023-08-21T06:58:33;9.27;;;7.47;;
13032;SDS011;6583;42.632;23.298;2023-08-21T07:01:00;9.07;;;7.97;;
13032;SDS011;6583;42.632;23.298;2023-08-21T07:03:27;10.05;;;7.70;;
13032;SDS011;6583;42.632;23.298;2023-08-21T07:05:53;11.77;;;7.45;;
13032;SDS011;6583;42.632;23.298;2023-08-21T07:08:22;8.63;;;6.97;;
13032;SDS011;6583;42.632;23.298;2023-08-21T07:10:50;11.38;;;7.45;;
13032;SDS011;6583;42.632;23.298;2023-08-21T07:13:17;8.75;;;6.53;;
13032;SDS011;6583;42.632;23.298;2023-08-21T07:15:44;7.72;;;6.53;;
13032;SDS011;6583;42.632;23.298;2023-08-21T07:18:11;7.18;;;6.47;;
13032;SDS011;6583;42.632;23.298;2023-08-21T07:20:38;7.35;;;6.43;;
13032;SDS011;6583;42.632;23.298;2023-08-21T07:23:04;7.88;;;6.50;;
13032;SDS011;6583;42.632;23.298;2023-08-21T07:25:33;9.02;;;7.03;;
13032;SDS011;6583;42.632;23.298;2023-08-21T07:27:59;9.25;;;7.00;;
13032;SDS011;6583;42.632;23.298;2023-08-21T07:30:26;7.57;;;6.88;;
13032;SDS011;6583;42.632;23.298;2023-08-21T07:32:53;8.32;;;6.93;;
13032;SDS011;6583;42.632;23.298;2023-08-21T07:35:20;8.38;;;6.40;;
13032;SDS011;6583;42.632;23.298;2023-08-21T07:37:46;6.95;;;6.25;;
13032;SDS011;6583;42.632;23.298;2023-08-21T07:40:13;8.65;;;6.35;;
13032;SDS011;6583;42.632;23.298;2023-08-21T07:42:41;8.07;;;7.15;;
13032;SDS011;6583;42.632;23.298;2023-08-21T07:45:08;7.35;;;6.65;;
13032;SDS011;6583;42.632;23.298;2023-08-21T07:47:35;10.00;;;6.60;;
13032;SDS011;6583;42.632;23.298;2023-08-21T07:50:02;7.38;;;6.30;;
13032;SDS011;6583;42.632;23.298;2023-08-21T07:52:29;7.63;;;6.75;;
13032;SDS011;6583;42.632;23.298;2023-08-21T07:54:55;7.80;;;7.10;;
13032;SDS011;6583;42.632;23.298;2023-08-21T07:57:24;10.07;;;6.85;;
13032;SDS011;6583;42.632;23.298;2023-08-21T07:59:52;7.65;;;6.43;;
13032;SDS011;6583;42.632;23.298;2023-08-21T08:02:19;8.07;;;6.70;;
13032;SDS011;6583;42.632;23.298;2023-08-21T08:04:45;7.95;;;6.90;;
13032;SDS011;6583;42.632;23.298;2023-08-21T08:07:12;6.78;;;6.18;;
13032;SDS011;6583;42.632;23.298;2023-08-21T08:09:39;7.20;;;6.50;;
13032;SDS011;6583;42.632;23.298;2023-08-21T08:12:06;7.00;;;6.40;;
13032;SDS011;6583;42.632;23.298;2023-08-21T08:14:33;9.05;;;5.95;;
13032;SDS011;6583;42.632;23.298;2023-08-21T08:17:01;6.75;;;6.15;;
13032;SDS011;6583;42.632;23.298;2023-08-21T08:19:28;9.48;;;6.85;;
13032;SDS011;6583;42.632;23.298;2023-08-21T08:21:54;7.10;;;6.28;;
13032;SDS011;6583;42.632;23.298;2023-08-21T08:24:21;7.05;;;6.35;;
13032;SDS011;6583;42.632;23.298;2023-08-21T08:26:48;7.10;;;6.50;;
13032;SDS011;6583;42.632;23.298;2023-08-21T08:29:15;6.90;;;6.25;;
13032;SDS011;6583;42.632;23.298;2023-08-21T08:31:41;6.68;;;6.07;;
13032;SDS011;6583;42.632;23.298;2023-08-21T08:34:09;7.32;;;6.20;;
13032;SDS011;6583;42.632;23.298;2023-08-21T08:36:36;8.45;;;5.93;;
13032;SDS011;6583;42.632;23.298;2023-08-21T08:39:02;6.88;;;6.28;;
13032;SDS011;6583;42.632;23.298;2023-08-21T08:41:33;7.45;;;6.45;;
13032;SDS011;6583;42.632;23.298;2023-08-21T08:44:04;8.23;;;6.32;;
13032;SDS011;6583;42.632;23.298;2023-08-21T08:46:32;8.30;;;6.20;;
13032;SDS011;6583;42.632;23.298;2023-08-21T08:49:00;6.57;;;5.65;;
13032;SDS011;6583;42.632;23.298;2023-08-21T08:51:29;8.52;;;6.10;;
13032;SDS011;6583;42.632;23.298;2023-08-21T08:53:59;7.10;;;6.40;;
13032;SDS011;6583;42.632;23.298;2023-08-21T08:56:26;6.93;;;6.20;;
13032;SDS011;6583;42.632;23.298;2023-08-21T08:58:53;8.40;;;6.40;;
13032;SDS011;6583;42.632;23.298;2023-08-21T09:01:20;6.30;;;5.70;;
13032;SDS011;6583;42.632;23.298;2023-08-21T09:03:46;7.05;;;6.13;;
13032;SDS011;6583;42.632;23.298;2023-08-21T09:06:15;7.40;;;5.80;;
13032;SDS011;6583;42.632;23.298;2023-08-21T09:08:44;8.45;;;6.43;;
13032;SDS011;6583;42.632;23.298;2023-08-21T09:11:19;7.10;;;6.40;;
13032;SDS011;6583;42.632;23.298;2023-08-21T09:13:47;7.22;;;6.00;;
13032;SDS011;6583;42.632;23.298;2023-08-21T09:16:15;6.95;;;6.20;;
13032;SDS011;6583;42.632;23.298;2023-08-21T09:18:46;8.70;;;7.80;;
13032;SDS011;6583;42.632;23.298;2023-08-21T09:21:15;6.85;;;5.90;;
13032;SDS011;6583;42.632;23.298;2023-08-21T09:23:43;6.50;;;5.93;;
13032;SDS011;6583;42.632;23.298;2023-08-21T09:26:11;10.43;;;6.95;;
13032;SDS011;6583;42.632;23.298;2023-08-21T09:28:37;7.70;;;6.07;;
13032;SDS011;6583;42.632;23.298;2023-08-21T09:31:04;7.10;;;6.47;;
13032;SDS011;6583;42.632;23.298;2023-08-21T09:33:31;6.50;;;5.90;;
13032;SDS011;6583;42.632;23.298;2023-08-21T09:35:58;7.30;;;6.03;;
13032;SDS011;6583;42.632;23.298;2023-08-21T09:38:25;8.45;;;6.28;;
13032;SDS011;6583;42.632;23.298;2023-08-21T09:40:54;6.95;;;6.25;;
13032;SDS011;6583;42.632;23.298;2023-08-21T09:43:22;6.75;;;6.20;;
13032;SDS011;6583;42.632;23.298;2023-08-21T09:45:49;6.90;;;6.15;;
13032;SDS011;6583;42.632;23.298;2023-08-21T09:48:20;7.97;;;5.88;;
13032;SDS011;6583;42.632;23.298;2023-08-21T09:50:48;6.93;;;5.80;;
13032;SDS011;6583;42.632;23.298;2023-08-21T09:53:14;6.63;;;6.03;;
13032;SDS011;6583;42.632;23.298;2023-08-21T09:55:41;8.65;;;5.95;;
13032;SDS011;6583;42.632;23.298;2023-08-21T09:58:09;7.80;;;6.45;;
13032;SDS011;6583;42.632;23.298;2023-08-21T10:00:37;6.80;;;6.13;;
13032;SDS011;6583;42.632;23.298;2023-08-21T10:03:06;6.72;;;6.13;;
13032;SDS011;6583;42.632;23.298;2023-08-21T10:05:36;6.97;;;5.75;;
13032;SDS011;6583;42.632;23.298;2023-08-21T10:08:05;7.03;;;6.32;;
13032;SDS011;6583;42.632;23.298;2023-08-21T10:10:33;6.07;;;5.55;;
13032;SDS011;6583;42.632;23.298;2023-08-21T10:13:00;6.82;;;6.22;;
13032;SDS011;6583;42.632;23.298;2023-08-21T10:15:30;6.93;;;6.30;;
13032;SDS011;6583;42.632;23.298;2023-08-21T10:17:58;6.80;;;5.57;;
13032;SDS011;6583;42.632;23.298;2023-08-21T10:20:44;6.82;;;6.15;;
13032;SDS011;6583;42.632;23.298;2023-08-21T10:23:10;16.33;;;10.43;;
13032;SDS011;6583;42.632;23.298;2023-08-21T10:25:53;6.30;;;5.78;;
13032;SDS011;6583;42.632;23.298;2023-08-21T10:28:21;6.18;;;5.68;;
13032;SDS011;6583;42.632;23.298;2023-08-21T10:30:49;6.20;;;5.60;;
13032;SDS011;6583;42.632;23.298;2023-08-21T10:33:16;6.53;;;5.90;;
13032;SDS011;6583;42.632;23.298;2023-08-21T10:35:44;7.97;;;6.10;;
13032;SDS011;6583;42.632;23.298;2023-08-21T10:38:12;6.35;;;5.82;;
13032;SDS011;6583;42.632;23.298;2023-08-21T10:40:40;8.52;;;5.68;;
13032;SDS011;6583;42.632;23.298;2023-08-21T10:43:37;7.90;;;5.90;;
13032;SDS011;6583;42.632;23.298;2023-08-21T10:46:05;7.75;;;5.45;;
13032;SDS011;6583;42.632;23.298;2023-08-21T10:48:32;5.97;;;5.28;;
13032;SDS011;6583;42.632;23.298;2023-08-21T10:50:59;7.00;;;5.80;;
13032;SDS011;6583;42.632;23.298;2023-08-21T10:53:28;6.68;;;5.68;;
13032;SDS011;6583;42.632;23.298;2023-08-21T10:55:55;6.20;;;5.60;;
13032;SDS011;6583;42.632;23.298;2023-08-21T10:58:22;6.13;;;5.60;;
13032;SDS011;6583;42.632;23.298;2023-08-21T11:00:55;6.18;;;5.57;;
13032;SDS011;6583;42.632;23.298;2023-08-21T11:03:24;7.10;;;5.38;;
13032;SDS011;6583;42.632;23.298;2023-08-21T11:06:01;6.03;;;5.43;;
13032;SDS011;6583;42.632;23.298;2023-08-21T11:08:29;5.68;;;5.18;;
13032;SDS011;6583;42.632;23.298;2023-08-21T11:10:55;5.82;;;5.25;;
13032;SDS011;6583;42.632;23.298;2023-08-21T11:13:23;5.95;;;5.35;;
13032;SDS011;6583;42.632;23.298;2023-08-21T11:15:50;6.20;;;5.45;;
13032;SDS011;6583;42.632;23.298;2023-08-21T11:18:30;6.15;;;5.47;;
13032;SDS011;6583;42.632;23.298;2023-08-21T11:21:03;6.68;;;5.60;;
13032;SDS011;6583;42.632;23.298;2023-08-21T11:23:34;6.00;;;5.50;;
13032;SDS011;6583;42.632;23.298;2023-08-21T11:26:03;5.75;;;5.25;;
13032;SDS011;6583;42.632;23.298;2023-08-21T11:28:30;6.50;;;5.72;;
13032;SDS011;6583;42.632;23.298;2023-08-21T11:30:57;6.22;;;5.72;;
13032;SDS011;6583;42.632;23.298;2023-08-21T11:33:25;6.45;;;5.78;;
13032;SDS011;6583;42.632;23.298;2023-08-21T11:35:54;5.78;;;5.35;;
13032;SDS011;6583;42.632;23.298;2023-08-21T11:38:25;6.18;;;5.60;;
13032;SDS011;6583;42.632;23.298;2023-08-21T11:40:54;7.15;;;6.15;;
13032;SDS011;6583;42.632;23.298;2023-08-21T11:43:22;8.13;;;6.47;;
13032;SDS011;6583;42.632;23.298;2023-08-21T11:45:49;6.50;;;5.90;;
13032;SDS011;6583;42.632;23.298;2023-08-21T11:48:15;9.38;;;5.90;;
13032;SDS011;6583;42.632;23.298;2023-08-21T11:50:47;7.07;;;5.80;;
13032;SDS011;6583;42.632;23.298;2023-08-21T11:53:15;5.97;;;5.35;;
13032;SDS011;6583;42.632;23.298;2023-08-21T11:55:57;9.93;;;5.70;;
13032;SDS011;6583;42.632;23.298;2023-08-21T11:58:26;6.40;;;5.32;;
13032;SDS011;6583;42.632;23.298;2023-08-21T12:00:53;8.45;;;5.47;;
13032;SDS011;6583;42.632;23.298;2023-08-21T12:03:19;5.68;;;5.18;;
13032;SDS011;6583;42.632;23.298;2023-08-21T12:05:46;6.07;;;5.50;;
13032;SDS011;6583;42.632;23.298;2023-08-21T12:08:12;6.68;;;5.30;;
13032;SDS011;6583;42.632;23.298;2023-08-21T12:10:40;5.90;;;5.05;;
13032;SDS011;6583;42.632;23.298;2023-08-21T12:13:07;5.78;;;5.28;;
13032;SDS011;6583;42.632;23.298;2023-08-21T12:15:34;5.75;;;5.22;;
13032;SDS011;6583;42.632;23.298;2023-08-21T12:18:00;6.28;;;5.78;;
13032;SDS011;6583;42.632;23.298;2023-08-21T12:20:27;6.10;;;5.53;;
13032;SDS011;6583;42.632;23.298;2023-08-21T12:22:54;7.25;;;5.15;;
13032;SDS011;6583;42.632;23.298;2023-08-21T12:25:21;5.97;;;5.20;;
13032;SDS011;6583;42.632;23.298;2023-08-21T12:27:49;6.25;;;5.45;;
13032;SDS011;6583;42.632;23.298;2023-08-21T12:30:16;5.70;;;5.30;;
13032;SDS011;6583;42.632;23.298;2023-08-21T12:32:42;6.53;;;5.50;;
13032;SDS011;6583;42.632;23.298;2023-08-21T12:35:09;5.57;;;5.07;;
13032;SDS011;6583;42.632;23.298;2023-08-21T12:37:37;6.78;;;5.57;;
13032;SDS011;6583;42.632;23.298;2023-08-21T12:40:04;6.32;;;5.70;;
13032;SDS011;6583;42.632;23.298;2023-08-21T12:42:32;6.70;;;5.55;;
13032;SDS011;6583;42.632;23.298;2023-08-21T12:45:00;5.68;;;5.18;;
13032;SDS011;6583;42.632;23.298;2023-08-21T12:47:26;5.93;;;5.43;;
13032;SDS011;6583;42.632;23.298;2023-08-21T12:49:53;6.10;;;5.50;;
13032;SDS011;6583;42.632;23.298;2023-08-21T12:52:20;6.00;;;5.50;;
13032;SDS011;6583;42.632;23.298;2023-08-21T12:54:46;5.70;;;5.20;;
13032;SDS011;6583;42.632;23.298;2023-08-21T12:57:13;7.85;;;5.55;;
13032;SDS011;6583;42.632;23.298;2023-08-21T12:59:41;8.05;;;5.47;;
13032;SDS011;6583;42.632;23.298;2023-08-21T13:02:10;6.38;;;5.40;;
13032;SDS011;6583;42.632;23.298;2023-08-21T13:04:36;5.90;;;5.40;;
13032;SDS011;6583;42.632;23.298;2023-08-21T13:07:04;6.78;;;5.32;;
13032;SDS011;6583;42.632;23.298;2023-08-21T13:09:31;5.60;;;5.10;;
13032;SDS011;6583;42.632;23.298;2023-08-21T13:11:58;5.88;;;5.32;;
13032;SDS011;6583;42.632;23.298;2023-08-21T13:14:25;5.90;;;5.22;;
13032;SDS011;6583;42.632;23.298;2023-08-21T13:16:52;7.10;;;4.80;;
13032;SDS011;6583;42.632;23.298;2023-08-21T13:19:20;7.03;;;5.28;;
13032;SDS011;6583;42.632;23.298;2023-08-21T13:21:46;5.95;;;5.47;;
13032;SDS011;6583;42.632;23.298;2023-08-21T13:24:13;7.82;;;5.55;;
13032;SDS011;6583;42.632;23.298;2023-08-21T13:26:39;8.05;;;5.68;;
13032;SDS011;6583;42.632;23.298;2023-08-21T13:29:06;7.38;;;5.43;;
13032;SDS011;6583;42.632;23.298;2023-08-21T13:31:33;9.52;;;6.07;;
13032;SDS011;6583;42.632;23.298;2023-08-21T13:34:00;6.95;;;5.50;;
13032;SDS011;6583;42.632;23.298;2023-08-21T13:36:28;8.52;;;6.32;;
13032;SDS011;6583;42.632;23.298;2023-08-21T13:38:55;6.60;;;5.95;;
13032;SDS011;6583;42.632;23.298;2023-08-21T13:41:21;7.13;;;5.70;;
13032;SDS011;6583;42.632;23.298;2023-08-21T13:43:48;6.35;;;5.63;;
13032;SDS011;6583;42.632;23.298;2023-08-21T13:46:15;8.57;;;5.78;;
13032;SDS011;6583;42.632;23.298;2023-08-21T13:48:41;7.20;;;5.40;;
13032;SDS011;6583;42.632;23.298;2023-08-21T13:51:08;6.82;;;5.70;;
13032;SDS011;6583;42.632;23.298;2023-08-21T13:53:36;7.80;;;5.40;;
13032;SDS011;6583;42.632;23.298;2023-08-21T13:56:03;5.90;;;5.30;;
13032;SDS011;6583;42.632;23.298;2023-08-21T13:58:30;7.03;;;5.70;;
13032;SDS011;6583;42.632;23.298;2023-08-21T14:00:57;6.10;;;5.50;;
13032;SDS011;6583;42.632;23.298;2023-08-21T14:03:24;6.50;;;5.90;;
13032;SDS011;6583;42.632;23.298;2023-08-21T14:05:50;6.28;;;5.53;;
13032;SDS011;6583;42.632;23.298;2023-08-21T14:08:17;6.90;;;5.85;;
13032;SDS011;6583;42.632;23.298;2023-08-21T14:10:45;5.90;;;5.30;;
13032;SDS011;6583;42.632;23.298;2023-08-21T14:13:12;7.15;;;5.30;;
13032;SDS011;6583;42.632;23.298;2023-08-21T14:15:38;6.05;;;5.45;;
13032;SDS011;6583;42.632;23.298;2023-08-21T14:18:05;8.52;;;5.32;;
13032;SDS011;6583;42.632;23.298;2023-08-21T14:20:32;5.78;;;5.30;;
13032;SDS011;6583;42.632;23.298;2023-08-21T14:22:59;8.30;;;5.90;;
13032;SDS011;6583;42.632;23.298;2023-08-21T14:25:26;7.32;;;5.97;;
13032;SDS011;6583;42.632;23.298;2023-08-21T14:27:55;6.93;;;5.60;;
13032;SDS011;6583;42.632;23.298;2023-08-21T14:30:21;7.68;;;5.80;;
13032;SDS011;6583;42.632;23.298;2023-08-21T14:32:48;6.30;;;5.70;;
13032;SDS011;6583;42.632;23.298;2023-08-21T14:35:15;6.65;;;6.05;;
13032;SDS011;6583;42.632;23.298;2023-08-21T14:37:41;6.40;;;5.85;;
13032;SDS011;6583;42.632;23.298;2023-08-21T14:40:08;6.53;;;5.90;;
13032;SDS011;6583;42.632;23.298;2023-08-21T14:42:36;5.63;;;5.13;;
13032;SDS011;6583;42.632;23.298;2023-08-21T14:45:05;6.93;;;5.95;;
13032;SDS011;6583;42.632;23.298;2023-08-21T14:47:32;6.22;;;5.72;;
13032;SDS011;6583;42.632;23.298;2023-08-21T14:49:59;8.10;;;5.97;;